createdAt,value
2019-01-13T00:01:01.094Z,48.57
2019-01-13T00:03:52.767Z,49.50
2019-01-13T00:06:44.287Z,50.27
2019-01-13T00:09:35.290Z,46.70
2019-01-13T00:12:26.095Z,46.13
2019-01-13T00:15:17.142Z,50.27
2019-01-13T00:18:07.905Z,48.57
2019-01-13T00:20:58.609Z,49.33
2019-01-13T00:23:49.529Z,45.97
2019-01-13T00:26:39.851Z,47.87
2019-01-13T00:29:33.558Z,50.10
2019-01-13T00:32:24.488Z,48.20
2019-01-13T00:35:16.583Z,49.27
2019-01-13T00:38:07.161Z,48.40
2019-01-13T00:40:57.809Z,47.67
2019-01-13T00:43:48.510Z,49.27
2019-01-13T00:46:39.021Z,54.47
2019-01-13T00:49:29.681Z,54.30
2019-01-13T00:52:20.352Z,48.53
2019-01-13T00:55:11.744Z,50.87
2019-01-13T00:58:02.149Z,52.30
2019-01-13T01:00:53.627Z,48.60
2019-01-13T01:03:44.504Z,47.07
2019-01-13T01:06:34.755Z,48.60
2019-01-13T01:09:25.513Z,49.93
2019-01-13T01:12:16.474Z,51.27
2019-01-13T01:15:08.467Z,48.73
2019-01-13T01:17:59.854Z,50.17
2019-01-13T01:20:50.700Z,49.10
2019-01-13T01:23:41.063Z,49.77
2019-01-13T01:26:31.681Z,50.43
2019-01-13T01:29:22.416Z,46.57
2019-01-13T01:32:13.240Z,46.87
2019-01-13T01:35:04.274Z,46.27
2019-01-13T01:37:54.666Z,44.20
2019-01-13T01:40:44.693Z,40.73
2019-01-13T01:43:35.446Z,41.70
2019-01-13T01:46:26.059Z,39.43
2019-01-13T01:49:16.734Z,38.53
2019-01-13T01:52:07.605Z,38.43
2019-01-13T01:54:58.198Z,36.07
2019-01-13T01:57:48.797Z,36.67
2019-01-13T02:00:41.410Z,31.53
2019-01-13T02:03:31.627Z,25.73
2019-01-13T02:06:24.514Z,27.07
2019-01-13T02:09:15.071Z,25.60
2019-01-13T02:12:06.020Z,30.20
2019-01-13T02:14:56.292Z,28.73
2019-01-13T02:17:47.135Z,30.43
2019-01-13T02:20:36.963Z,27.83
2019-01-13T02:23:27.414Z,24.50
2019-01-13T02:26:19.197Z,22.97
2019-01-13T02:29:10.087Z,21.80
2019-01-13T02:32:00.767Z,22.63
2019-01-13T02:34:51.408Z,23.40
2019-01-13T02:37:42.918Z,23.50
2019-01-13T02:40:33.590Z,24.80
2019-01-13T02:43:24.283Z,25.40
2019-01-13T02:46:16.261Z,24.10
2019-01-13T02:49:08.079Z,24.23
2019-01-13T02:51:58.087Z,23.60
2019-01-13T02:54:48.629Z,24.87
2019-01-13T02:57:38.616Z,28.65
2019-01-13T03:00:29.010Z,23.33
2019-01-13T03:03:19.650Z,24.23
2019-01-13T03:06:12.790Z,20.63
2019-01-13T03:09:04.641Z,19.17
2019-01-13T03:11:58.005Z,19.47
2019-01-13T03:14:55.089Z,20.97
2019-01-13T03:17:49.504Z,23.13
2019-01-13T03:20:40.498Z,24.20
2019-01-13T03:23:34.893Z,24.70
2019-01-13T03:26:41.510Z,24.50
2019-01-13T03:29:31.141Z,24.97
2019-01-13T03:32:26.301Z,24.10
2019-01-13T03:35:20.204Z,22.73
2019-01-13T03:38:12.572Z,23.27
2019-01-13T03:41:12.668Z,23.73
2019-01-13T03:44:06.128Z,23.27
2019-01-13T03:46:56.991Z,20.23
2019-01-13T03:49:49.076Z,19.67
2019-01-13T03:52:39.764Z,17.57
2019-01-13T03:55:29.510Z,18.60
2019-01-13T03:58:20.285Z,18.00
2019-01-13T04:01:18.497Z,17.73
2019-01-13T04:04:06.104Z,18.13
2019-01-13T04:06:56.388Z,18.17
2019-01-13T04:09:47.318Z,19.27
2019-01-13T04:12:38.090Z,19.23
2019-01-13T04:16:00.607Z,19.60
2019-01-13T04:18:51.318Z,20.57
2019-01-13T04:21:42.129Z,20.23
2019-01-13T04:24:32.761Z,19.80
2019-01-13T04:27:23.669Z,19.43
2019-01-13T04:30:14.591Z,20.50
2019-01-13T04:33:05.605Z,20.90
2019-01-13T04:35:56.107Z,19.70
2019-01-13T04:38:47.033Z,20.57
2019-01-13T04:41:40.519Z,20.07
2019-01-13T04:44:30.950Z,19.90
2019-01-13T04:47:21.662Z,18.97
2019-01-13T04:50:11.893Z,18.67
2019-01-13T04:53:02.380Z,17.77
2019-01-13T04:55:52.490Z,17.10
2019-01-13T04:58:42.667Z,15.67
2019-01-13T05:01:34.902Z,16.17
2019-01-13T05:04:25.274Z,15.83
2019-01-13T05:07:18.240Z,14.33
2019-01-13T05:10:17.325Z,15.03
2019-01-13T05:13:07.302Z,13.07
2019-01-13T05:15:58.001Z,12.10
2019-01-13T05:18:48.846Z,13.43
2019-01-13T05:21:38.670Z,11.90
2019-01-13T05:24:29.349Z,14.17
2019-01-13T05:27:19.967Z,13.43
2019-01-13T05:30:14.003Z,13.47
2019-01-13T05:33:03.683Z,12.57
2019-01-13T05:35:54.336Z,11.27
2019-01-13T05:38:45.026Z,12.13
2019-01-13T05:41:35.568Z,11.50
2019-01-13T05:44:26.282Z,10.47
2019-01-13T05:47:16.964Z,10.40
2019-01-13T05:50:09.819Z,11.87
2019-01-13T05:53:00.296Z,13.13
2019-01-13T05:55:50.956Z,12.10
2019-01-13T05:58:41.847Z,12.13
2019-01-13T06:01:33.952Z,12.73
2019-01-13T06:04:24.667Z,12.27
2019-01-13T06:07:16.123Z,12.27
2019-01-13T06:10:08.566Z,11.47
2019-01-13T06:12:58.637Z,11.53
2019-01-13T06:15:49.339Z,10.97
2019-01-13T06:18:39.889Z,10.30
2019-01-13T06:21:30.528Z,10.77
2019-01-13T06:24:21.502Z,11.17
2019-01-13T06:27:11.609Z,11.73
2019-01-13T06:30:01.511Z,10.70
2019-01-13T06:32:52.759Z,11.60
2019-01-13T06:35:24.636Z,10.17
2019-01-13T06:37:56.548Z,9.20
2019-01-13T06:40:28.421Z,9.40
2019-01-13T06:43:00.240Z,9.63
2019-01-13T06:45:32.268Z,8.87
2019-01-13T06:48:04.669Z,8.03
2019-01-13T06:50:36.552Z,9.47
2019-01-13T06:53:08.381Z,10.07
2019-01-13T06:55:40.266Z,9.23
2019-01-13T06:58:12.115Z,8.67
2019-01-13T07:00:44.135Z,9.17
2019-01-13T07:03:16.058Z,8.00
2019-01-13T07:05:47.909Z,8.63
2019-01-13T07:08:19.797Z,8.50
2019-01-13T07:10:51.686Z,9.07
2019-01-13T07:13:23.676Z,9.03
2019-01-13T07:15:55.562Z,8.47
2019-01-13T07:18:29.114Z,8.20
2019-01-13T07:21:01.120Z,7.70
2019-01-13T07:23:33.057Z,9.10
2019-01-13T07:26:08.630Z,8.43
2019-01-13T07:28:40.543Z,7.83
2019-01-13T07:31:12.484Z,8.30
2019-01-13T07:33:44.414Z,7.57
2019-01-13T07:36:16.251Z,8.43
2019-01-13T07:38:48.134Z,8.60
2019-01-13T07:41:19.961Z,8.57
2019-01-13T07:43:51.833Z,9.00
2019-01-13T07:46:23.713Z,8.87
2019-01-13T07:48:55.553Z,9.70
2019-01-13T07:51:27.413Z,10.03
2019-01-13T07:53:59.289Z,9.83
2019-01-13T07:56:31.192Z,9.70
2019-01-13T07:59:03.057Z,10.20
2019-01-13T08:01:34.890Z,9.40
2019-01-13T08:04:06.749Z,8.70
2019-01-13T08:06:38.601Z,9.40
2019-01-13T08:09:10.608Z,9.23
2019-01-13T08:11:42.481Z,9.67
2019-01-13T08:14:14.345Z,9.10
2019-01-13T08:16:46.283Z,8.47
2019-01-13T08:19:25.138Z,8.07
2019-01-13T08:21:57.232Z,8.93
2019-01-13T08:24:30.710Z,8.50
2019-01-13T08:27:02.594Z,8.33
2019-01-13T08:29:34.424Z,8.70
2019-01-13T08:32:06.373Z,8.47
2019-01-13T08:34:38.229Z,9.33
2019-01-13T08:37:12.247Z,9.30
2019-01-13T08:39:44.087Z,8.40
2019-01-13T08:42:16.142Z,8.60
2019-01-13T08:44:49.550Z,8.10
2019-01-13T08:47:21.454Z,7.60
2019-01-13T08:49:53.896Z,7.77
2019-01-13T08:52:25.789Z,8.37
2019-01-13T08:54:57.810Z,8.30
2019-01-13T08:57:29.680Z,35.70
2019-01-13T09:00:07.630Z,18.07
2019-01-13T09:02:39.444Z,9.87
2019-01-13T09:05:13.924Z,10.90
2019-01-13T09:07:45.898Z,8.57
2019-01-13T09:10:18.659Z,9.50
2019-01-13T09:12:56.706Z,8.93
2019-01-13T09:15:27.979Z,9.57
2019-01-13T09:18:02.712Z,8.80
2019-01-13T09:20:34.752Z,9.50
2019-01-13T09:23:07.356Z,11.37
2019-01-13T09:25:39.570Z,12.17
2019-01-13T09:28:11.467Z,10.40
2019-01-13T09:30:45.030Z,10.60
2019-01-13T09:33:17.098Z,10.15
2019-01-13T09:35:50.647Z,12.55
2019-01-13T09:38:22.493Z,12.25
2019-01-13T09:40:54.396Z,13.28
2019-01-13T09:43:26.329Z,10.80
2019-01-13T09:45:58.315Z,8.95
2019-01-13T09:48:30.281Z,10.15
2019-01-13T09:51:02.121Z,10.32
2019-01-13T09:53:34.127Z,11.08
2019-01-13T09:56:06.141Z,10.88
2019-01-13T09:58:39.329Z,9.85
2019-01-13T10:01:14.037Z,9.98
2019-01-13T10:03:46.025Z,11.15
2019-01-13T10:06:19.687Z,12.05
2019-01-13T10:08:51.586Z,13.30
2019-01-13T10:11:24.804Z,14.65
2019-01-13T10:13:56.882Z,17.07
2019-01-13T10:16:28.902Z,11.25
2019-01-13T10:19:00.866Z,18.80
2019-01-13T10:21:32.796Z,14.87
2019-01-13T10:24:04.940Z,12.58
2019-01-13T10:26:36.883Z,12.40
2019-01-13T10:29:08.715Z,13.72
2019-01-13T10:31:40.811Z,13.03
2019-01-13T10:34:14.075Z,13.90
2019-01-13T10:36:46.083Z,13.38
2019-01-13T10:39:17.948Z,12.65
2019-01-13T10:41:53.287Z,11.93
2019-01-13T10:44:43.795Z,8.35
2019-01-13T10:47:35.579Z,8.40
2019-01-13T10:50:28.011Z,8.85
2019-01-13T10:53:19.383Z,15.05
2019-01-13T10:56:13.615Z,13.13
2019-01-13T10:59:04.531Z,16.55
2019-01-13T11:01:55.207Z,9.60
2019-01-13T11:04:45.990Z,10.08
2019-01-13T11:07:36.501Z,16.75
2019-01-13T11:10:27.307Z,7.55
2019-01-13T11:13:17.899Z,4.80
2019-01-13T11:16:08.869Z,4.67
2019-01-13T11:18:59.787Z,5.60
2019-01-13T11:21:50.860Z,4.95
2019-01-13T11:24:41.612Z,3.80
2019-01-13T11:27:14.866Z,4.72
2019-01-13T11:30:02.062Z,4.35
2019-01-13T11:32:34.769Z,3.45
2019-01-13T11:35:08.550Z,5.67
2019-01-13T11:37:59.343Z,5.65
2019-01-13T11:40:50.030Z,5.10
2019-01-13T11:43:40.360Z,4.45
2019-01-13T11:46:30.095Z,4.20
2019-01-13T11:49:20.387Z,4.87
2019-01-13T11:52:11.131Z,4.20
2019-01-13T11:55:01.584Z,3.83
2019-01-13T11:57:51.994Z,5.80
2019-01-13T12:00:36.348Z,7.08
2019-01-13T12:03:08.786Z,4.20
2019-01-13T12:05:42.776Z,5.33
2019-01-13T12:08:14.823Z,15.63
2019-01-13T12:10:59.608Z,11.00
2019-01-13T12:13:34.169Z,8.75
2019-01-13T12:16:09.338Z,5.12
2019-01-13T12:18:41.327Z,7.55
2019-01-13T12:21:13.376Z,6.35
2019-01-13T12:23:45.337Z,3.70
2019-01-13T12:26:35.694Z,3.52
2019-01-13T12:29:25.766Z,16.40
2019-01-13T12:32:16.695Z,12.85
2019-01-13T12:35:07.854Z,6.78
2019-01-13T12:37:59.207Z,7.42
2019-01-13T12:40:50.257Z,11.38
2019-01-13T12:43:22.990Z,31.07
2019-01-13T12:45:55.800Z,14.30
2019-01-13T12:48:27.956Z,8.20
2019-01-13T12:53:58.635Z,7.05
2019-01-13T12:56:31.493Z,3.87
2019-01-13T12:59:03.981Z,3.83
2019-01-13T13:01:35.954Z,3.72
2019-01-13T13:04:19.843Z,4.58
2019-01-13T13:06:51.991Z,4.58
2019-01-13T13:09:24.020Z,15.03
2019-01-13T13:11:56.470Z,15.30
2019-01-13T13:14:29.332Z,5.45
2019-01-13T13:17:01.416Z,5.80
2019-01-13T13:19:34.452Z,14.25
2019-01-13T13:22:06.566Z,40.60
2019-01-13T13:24:38.584Z,14.10
2019-01-13T13:27:13.682Z,10.23
2019-01-13T13:29:45.737Z,12.98
2019-01-13T13:32:17.732Z,35.43
2019-01-13T13:34:50.216Z,10.23
2019-01-13T13:37:22.321Z,9.70
2019-01-13T13:39:54.270Z,10.48
2019-01-13T13:42:26.275Z,5.22
2019-01-13T13:44:58.236Z,9.33
2019-01-13T13:47:30.231Z,4.72
2019-01-13T13:50:02.219Z,5.75
2019-01-13T13:52:34.228Z,12.23
2019-01-13T13:55:07.590Z,40.03
2019-01-13T13:57:39.695Z,53.02
2019-01-13T14:00:15.671Z,30.48
2019-01-13T14:02:47.960Z,16.65
2019-01-13T14:05:20.035Z,18.27
2019-01-13T14:07:52.086Z,10.20
2019-01-13T14:10:43.906Z,5.72
2019-01-13T14:13:16.065Z,4.33
2019-01-13T14:15:48.702Z,5.03
2019-01-13T14:18:20.809Z,4.72
2019-01-13T14:20:52.772Z,5.50
2019-01-13T14:23:24.827Z,4.17
2019-01-13T14:25:56.796Z,4.67
2019-01-13T14:28:31.752Z,4.12
2019-01-13T14:31:03.728Z,4.03
2019-01-13T14:33:35.736Z,4.72
2019-01-13T14:36:07.789Z,4.85
2019-01-13T14:38:39.788Z,5.03
2019-01-13T14:41:11.974Z,6.20
2019-01-13T14:43:44.092Z,7.05
2019-01-13T14:46:16.111Z,7.55
2019-01-13T21:04:01.229Z,53.57
2019-01-13T21:06:33.220Z,55.00
2019-01-13T21:09:10.184Z,61.73
2019-01-13T21:11:42.454Z,49.10
2019-01-13T21:14:14.893Z,45.50
2019-01-13T21:16:49.203Z,43.17
2019-01-13T21:19:22.016Z,42.35
2019-01-13T21:21:54.027Z,41.77
2019-01-13T21:24:26.055Z,46.17
2019-01-13T21:26:58.085Z,47.47
2019-01-13T21:29:30.215Z,45.77
2019-01-13T21:32:02.192Z,45.10
2019-01-13T21:34:36.758Z,45.77
2019-01-13T21:37:08.698Z,46.87
2019-01-13T21:39:43.722Z,49.87
2019-01-13T21:42:15.764Z,51.93
2019-01-13T21:44:47.758Z,48.23
2019-01-13T21:47:21.868Z,42.83
2019-01-13T21:49:57.008Z,42.27
2019-01-13T21:52:36.077Z,43.80
2019-01-13T21:55:16.214Z,45.93
2019-01-13T21:57:52.652Z,48.57
2019-01-13T22:00:51.096Z,50.10
2019-01-13T22:03:30.164Z,51.93
2019-01-13T22:06:13.727Z,54.47
2019-01-13T22:08:56.177Z,55.17
2019-01-13T22:11:42.124Z,51.77
2019-01-13T22:14:18.233Z,47.77
2019-01-13T22:16:50.809Z,44.57
2019-01-13T22:19:24.968Z,45.70
2019-01-13T22:21:58.113Z,47.27
2019-01-13T22:24:30.144Z,50.60
2019-01-13T22:27:02.144Z,50.60
2019-01-13T22:29:34.506Z,55.30
2019-01-13T22:32:09.240Z,64.80
2019-01-13T22:34:41.196Z,56.37
2019-01-13T22:37:14.567Z,54.80
2019-01-13T22:39:46.919Z,55.00
2019-01-13T22:42:18.912Z,56.90
2019-01-13T22:44:50.856Z,49.77
2019-01-13T22:47:22.925Z,49.93
2019-01-13T22:49:55.028Z,49.67
2019-01-13T22:52:27.803Z,50.10
2019-01-13T22:54:59.826Z,48.20
2019-01-13T22:57:31.776Z,47.10
2019-01-13T23:00:16.052Z,47.30
2019-01-13T23:02:48.539Z,48.40
2019-01-13T23:05:20.520Z,50.27
2019-01-13T23:07:53.853Z,46.90
2019-01-13T23:10:26.201Z,44.63
2019-01-13T23:12:58.144Z,42.70
2019-01-13T23:15:30.149Z,52.90
2019-01-13T23:18:02.101Z,48.70
2019-01-13T23:20:34.097Z,49.30
2019-01-13T23:23:06.145Z,44.87
2019-01-13T23:25:38.148Z,42.33
2019-01-13T23:28:10.125Z,40.23
2019-01-13T23:30:42.187Z,40.67
2019-01-13T23:33:15.918Z,40.50
2019-01-13T23:35:47.846Z,40.77
2019-01-13T23:38:19.834Z,41.10
2019-01-13T23:40:53.353Z,41.50
2019-01-13T23:43:30.689Z,45.03
2019-01-13T23:46:04.619Z,44.23
2019-01-13T23:48:36.740Z,44.20
2019-01-13T23:51:08.812Z,41.17
2019-01-13T23:53:41.977Z,41.43
2019-01-13T23:56:14.018Z,39.27
2019-01-13T23:58:45.981Z,40.80
